sensor_id;sensor_type;location;lat;lon;timestamp;P1;durP1;ratioP1;P2;durP2;ratioP2
80411;SDS011;69749;42.684;23.360;2023-07-09T00:01:12;5.93;;;2.88;;
80411;SDS011;69749;42.684;23.360;2023-07-09T00:03:42;5.57;;;2.92;;
80411;SDS011;69749;42.684;23.360;2023-07-09T00:06:16;4.85;;;3.17;;
80411;SDS011;69749;42.684;23.360;2023-07-09T00:08:43;6.85;;;3.05;;
80411;SDS011;69749;42.684;23.360;2023-07-09T00:11:10;4.00;;;2.58;;
80411;SDS011;69749;42.684;23.360;2023-07-09T00:13:36;4.18;;;2.90;;
80411;SDS011;69749;42.684;23.360;2023-07-09T00:16:03;7.30;;;3.15;;
80411;SDS011;69749;42.684;23.360;2023-07-09T00:18:36;5.25;;;3.50;;
80411;SDS011;69749;42.684;23.360;2023-07-09T00:21:01;4.93;;;3.15;;
80411;SDS011;69749;42.684;23.360;2023-07-09T00:23:27;6.72;;;3.33;;
80411;SDS011;69749;42.684;23.360;2023-07-09T00:25:52;4.97;;;3.08;;
80411;SDS011;69749;42.684;23.360;2023-07-09T00:28:18;5.38;;;2.80;;
80411;SDS011;69749;42.684;23.360;2023-07-09T00:30:45;5.38;;;3.28;;
80411;SDS011;69749;42.684;23.360;2023-07-09T00:33:11;8.05;;;3.05;;
80411;SDS011;69749;42.684;23.360;2023-07-09T00:35:43;4.28;;;2.78;;
80411;SDS011;69749;42.684;23.360;2023-07-09T00:38:14;5.60;;;3.10;;
80411;SDS011;69749;42.684;23.360;2023-07-09T00:40:46;9.15;;;3.03;;
80411;SDS011;69749;42.684;23.360;2023-07-09T00:43:15;4.95;;;2.72;;
80411;SDS011;69749;42.684;23.360;2023-07-09T00:45:41;6.18;;;3.22;;
80411;SDS011;69749;42.684;23.360;2023-07-09T00:48:09;6.78;;;2.85;;
80411;SDS011;69749;42.684;23.360;2023-07-09T00:50:40;5.20;;;3.15;;
80411;SDS011;69749;42.684;23.360;2023-07-09T00:55:51;6.40;;;2.70;;
80411;SDS011;69749;42.684;23.360;2023-07-09T00:58:25;8.80;;;3.05;;
80411;SDS011;69749;42.684;23.360;2023-07-09T01:00:54;2.92;;;2.63;;
80411;SDS011;69749;42.684;23.360;2023-07-09T01:03:29;6.00;;;2.97;;
80411;SDS011;69749;42.684;23.360;2023-07-09T01:05:59;4.97;;;2.85;;
80411;SDS011;69749;42.684;23.360;2023-07-09T01:08:26;8.23;;;2.95;;
80411;SDS011;69749;42.684;23.360;2023-07-09T01:10:55;5.22;;;2.88;;
80411;SDS011;69749;42.684;23.360;2023-07-09T01:13:22;5.60;;;3.10;;
80411;SDS011;69749;42.684;23.360;2023-07-09T01:15:47;5.05;;;2.80;;
80411;SDS011;69749;42.684;23.360;2023-07-09T01:18:13;4.90;;;2.80;;
80411;SDS011;69749;42.684;23.360;2023-07-09T01:20:39;2.97;;;2.58;;
80411;SDS011;69749;42.684;23.360;2023-07-09T01:23:05;5.70;;;2.72;;
80411;SDS011;69749;42.684;23.360;2023-07-09T01:25:31;5.22;;;3.30;;
80411;SDS011;69749;42.684;23.360;2023-07-09T01:27:57;4.38;;;2.55;;
80411;SDS011;69749;42.684;23.360;2023-07-09T01:30:29;5.50;;;3.10;;
80411;SDS011;69749;42.684;23.360;2023-07-09T01:32:57;3.67;;;2.78;;
80411;SDS011;69749;42.684;23.360;2023-07-09T01:35:24;8.73;;;3.20;;
80411;SDS011;69749;42.684;23.360;2023-07-09T01:40:19;4.70;;;3.00;;
80411;SDS011;69749;42.684;23.360;2023-07-09T01:42:46;4.22;;;3.08;;
80411;SDS011;69749;42.684;23.360;2023-07-09T01:45:11;4.50;;;2.80;;
80411;SDS011;69749;42.684;23.360;2023-07-09T01:47:38;4.80;;;2.85;;
80411;SDS011;69749;42.684;23.360;2023-07-09T01:50:05;6.25;;;2.90;;
80411;SDS011;69749;42.684;23.360;2023-07-09T01:52:31;7.03;;;2.92;;
80411;SDS011;69749;42.684;23.360;2023-07-09T01:54:59;5.05;;;3.30;;
80411;SDS011;69749;42.684;23.360;2023-07-09T01:57:25;7.10;;;2.88;;
80411;SDS011;69749;42.684;23.360;2023-07-09T01:59:58;4.00;;;2.63;;
80411;SDS011;69749;42.684;23.360;2023-07-09T02:02:25;6.25;;;3.17;;
80411;SDS011;69749;42.684;23.360;2023-07-09T02:04:52;4.63;;;3.60;;
80411;SDS011;69749;42.684;23.360;2023-07-09T02:07:19;6.05;;;3.88;;
80411;SDS011;69749;42.684;23.360;2023-07-09T02:09:46;9.15;;;4.53;;
80411;SDS011;69749;42.684;23.360;2023-07-09T02:12:12;8.73;;;4.65;;
80411;SDS011;69749;42.684;23.360;2023-07-09T02:14:39;9.68;;;4.38;;
80411;SDS011;69749;42.684;23.360;2023-07-09T02:17:05;7.18;;;3.70;;
80411;SDS011;69749;42.684;23.360;2023-07-09T02:19:31;6.25;;;3.92;;
80411;SDS011;69749;42.684;23.360;2023-07-09T02:21:57;6.05;;;3.90;;
80411;SDS011;69749;42.684;23.360;2023-07-09T02:24:23;5.30;;;3.50;;
80411;SDS011;69749;42.684;23.360;2023-07-09T02:26:53;7.97;;;3.72;;
80411;SDS011;69749;42.684;23.360;2023-07-09T02:29:20;5.57;;;3.47;;
80411;SDS011;69749;42.684;23.360;2023-07-09T02:31:45;5.75;;;3.60;;
80411;SDS011;69749;42.684;23.360;2023-07-09T02:34:13;4.95;;;4.05;;
80411;SDS011;69749;42.684;23.360;2023-07-09T02:36:38;7.13;;;4.38;;
80411;SDS011;69749;42.684;23.360;2023-07-09T02:39:08;5.13;;;4.10;;
80411;SDS011;69749;42.684;23.360;2023-07-09T02:41:35;8.00;;;4.25;;
80411;SDS011;69749;42.684;23.360;2023-07-09T02:44:00;7.53;;;4.32;;
80411;SDS011;69749;42.684;23.360;2023-07-09T02:46:26;5.70;;;3.95;;
80411;SDS011;69749;42.684;23.360;2023-07-09T02:48:51;6.35;;;4.40;;
80411;SDS011;69749;42.684;23.360;2023-07-09T02:51:16;7.15;;;4.88;;
80411;SDS011;69749;42.684;23.360;2023-07-09T02:53:42;6.22;;;4.65;;
80411;SDS011;69749;42.684;23.360;2023-07-09T02:56:07;4.63;;;4.15;;
80411;SDS011;69749;42.684;23.360;2023-07-09T02:58:33;11.15;;;4.38;;
80411;SDS011;69749;42.684;23.360;2023-07-09T03:00:58;5.47;;;4.18;;
80411;SDS011;69749;42.684;23.360;2023-07-09T03:03:24;10.20;;;4.68;;
80411;SDS011;69749;42.684;23.360;2023-07-09T03:05:49;7.57;;;4.88;;
80411;SDS011;69749;42.684;23.360;2023-07-09T03:08:15;5.03;;;3.83;;
80411;SDS011;69749;42.684;23.360;2023-07-09T03:10:40;5.10;;;4.03;;
80411;SDS011;69749;42.684;23.360;2023-07-09T03:13:06;8.38;;;4.80;;
80411;SDS011;69749;42.684;23.360;2023-07-09T03:15:32;5.90;;;4.13;;
80411;SDS011;69749;42.684;23.360;2023-07-09T03:17:57;7.80;;;4.22;;
80411;SDS011;69749;42.684;23.360;2023-07-09T03:20:23;5.05;;;4.50;;
80411;SDS011;69749;42.684;23.360;2023-07-09T03:22:49;7.03;;;4.30;;
80411;SDS011;69749;42.684;23.360;2023-07-09T03:25:14;6.10;;;4.70;;
80411;SDS011;69749;42.684;23.360;2023-07-09T03:27:40;6.47;;;4.55;;
80411;SDS011;69749;42.684;23.360;2023-07-09T03:30:05;8.77;;;4.80;;
80411;SDS011;69749;42.684;23.360;2023-07-09T03:32:31;8.70;;;4.43;;
80411;SDS011;69749;42.684;23.360;2023-07-09T03:34:56;10.85;;;4.45;;
80411;SDS011;69749;42.684;23.360;2023-07-09T03:37:22;5.57;;;4.40;;
80411;SDS011;69749;42.684;23.360;2023-07-09T03:39:47;11.93;;;5.28;;
80411;SDS011;69749;42.684;23.360;2023-07-09T03:42:13;7.13;;;4.60;;
80411;SDS011;69749;42.684;23.360;2023-07-09T03:44:38;6.05;;;4.88;;
80411;SDS011;69749;42.684;23.360;2023-07-09T03:47:04;7.50;;;4.28;;
80411;SDS011;69749;42.684;23.360;2023-07-09T03:49:29;8.23;;;4.78;;
80411;SDS011;69749;42.684;23.360;2023-07-09T03:51:55;8.85;;;3.85;;
80411;SDS011;69749;42.684;23.360;2023-07-09T03:54:20;5.45;;;3.97;;
80411;SDS011;69749;42.684;23.360;2023-07-09T03:56:45;8.52;;;4.68;;
80411;SDS011;69749;42.684;23.360;2023-07-09T03:59:11;10.15;;;4.75;;
80411;SDS011;69749;42.684;23.360;2023-07-09T04:01:36;10.15;;;4.93;;
80411;SDS011;69749;42.684;23.360;2023-07-09T04:04:02;7.47;;;4.80;;
80411;SDS011;69749;42.684;23.360;2023-07-09T04:06:28;13.15;;;4.85;;
80411;SDS011;69749;42.684;23.360;2023-07-09T04:08:54;8.82;;;4.72;;
80411;SDS011;69749;42.684;23.360;2023-07-09T04:11:19;8.43;;;4.57;;
80411;SDS011;69749;42.684;23.360;2023-07-09T04:13:44;7.88;;;4.65;;
80411;SDS011;69749;42.684;23.360;2023-07-09T04:16:10;9.02;;;5.13;;
80411;SDS011;69749;42.684;23.360;2023-07-09T04:18:35;9.95;;;5.63;;
80411;SDS011;69749;42.684;23.360;2023-07-09T04:21:01;7.47;;;5.72;;
80411;SDS011;69749;42.684;23.360;2023-07-09T04:23:27;9.02;;;5.05;;
80411;SDS011;69749;42.684;23.360;2023-07-09T04:25:53;7.55;;;5.13;;
80411;SDS011;69749;42.684;23.360;2023-07-09T04:28:18;9.63;;;5.30;;
80411;SDS011;69749;42.684;23.360;2023-07-09T04:30:48;9.48;;;6.32;;
80411;SDS011;69749;42.684;23.360;2023-07-09T04:33:14;9.48;;;5.35;;
80411;SDS011;69749;42.684;23.360;2023-07-09T04:35:42;7.35;;;5.47;;
80411;SDS011;69749;42.684;23.360;2023-07-09T04:38:08;7.25;;;5.15;;
80411;SDS011;69749;42.684;23.360;2023-07-09T04:40:34;7.63;;;5.40;;
80411;SDS011;69749;42.684;23.360;2023-07-09T04:42:59;8.95;;;5.30;;
80411;SDS011;69749;42.684;23.360;2023-07-09T04:45:25;10.15;;;5.25;;
80411;SDS011;69749;42.684;23.360;2023-07-09T04:47:50;10.18;;;5.25;;
80411;SDS011;69749;42.684;23.360;2023-07-09T04:50:17;8.90;;;5.47;;
80411;SDS011;69749;42.684;23.360;2023-07-09T04:52:43;8.93;;;4.97;;
80411;SDS011;69749;42.684;23.360;2023-07-09T04:55:08;7.95;;;4.43;;
80411;SDS011;69749;42.684;23.360;2023-07-09T04:57:34;8.95;;;4.90;;
80411;SDS011;69749;42.684;23.360;2023-07-09T04:59:59;9.48;;;5.78;;
80411;SDS011;69749;42.684;23.360;2023-07-09T05:02:25;7.38;;;4.93;;
80411;SDS011;69749;42.684;23.360;2023-07-09T05:04:51;9.00;;;5.45;;
80411;SDS011;69749;42.684;23.360;2023-07-09T05:07:16;10.27;;;5.38;;
80411;SDS011;69749;42.684;23.360;2023-07-09T05:09:42;11.80;;;5.40;;
80411;SDS011;69749;42.684;23.360;2023-07-09T05:12:07;11.02;;;4.90;;
80411;SDS011;69749;42.684;23.360;2023-07-09T05:14:33;8.00;;;4.53;;
80411;SDS011;69749;42.684;23.360;2023-07-09T05:16:59;8.20;;;4.82;;
80411;SDS011;69749;42.684;23.360;2023-07-09T05:19:24;9.30;;;4.70;;
80411;SDS011;69749;42.684;23.360;2023-07-09T05:21:50;10.43;;;4.90;;
80411;SDS011;69749;42.684;23.360;2023-07-09T05:24:15;6.55;;;4.57;;
80411;SDS011;69749;42.684;23.360;2023-07-09T05:26:40;8.50;;;4.47;;
80411;SDS011;69749;42.684;23.360;2023-07-09T05:29:06;10.38;;;4.82;;
80411;SDS011;69749;42.684;23.360;2023-07-09T05:31:32;8.32;;;4.45;;
80411;SDS011;69749;42.684;23.360;2023-07-09T05:33:58;4.97;;;4.25;;
80411;SDS011;69749;42.684;23.360;2023-07-09T05:36:25;5.50;;;4.13;;
80411;SDS011;69749;42.684;23.360;2023-07-09T05:38:51;9.88;;;4.85;;
80411;SDS011;69749;42.684;23.360;2023-07-09T05:41:17;6.95;;;4.03;;
80411;SDS011;69749;42.684;23.360;2023-07-09T05:43:43;5.07;;;3.92;;
80411;SDS011;69749;42.684;23.360;2023-07-09T05:46:09;7.10;;;4.30;;
80411;SDS011;69749;42.684;23.360;2023-07-09T05:48:35;7.75;;;4.45;;
80411;SDS011;69749;42.684;23.360;2023-07-09T05:51:00;9.80;;;4.20;;
80411;SDS011;69749;42.684;23.360;2023-07-09T05:53:26;8.25;;;3.80;;
80411;SDS011;69749;42.684;23.360;2023-07-09T05:55:55;6.30;;;3.85;;
80411;SDS011;69749;42.684;23.360;2023-07-09T05:58:21;4.05;;;3.03;;
80411;SDS011;69749;42.684;23.360;2023-07-09T06:00:49;6.45;;;4.00;;
80411;SDS011;69749;42.684;23.360;2023-07-09T06:03:18;5.80;;;3.88;;
80411;SDS011;69749;42.684;23.360;2023-07-09T06:05:45;5.03;;;3.78;;
80411;SDS011;69749;42.684;23.360;2023-07-09T06:08:10;5.43;;;3.38;;
80411;SDS011;69749;42.684;23.360;2023-07-09T06:10:37;6.40;;;3.67;;
80411;SDS011;69749;42.684;23.360;2023-07-09T06:13:03;7.50;;;4.03;;
80411;SDS011;69749;42.684;23.360;2023-07-09T06:15:28;8.77;;;4.28;;
80411;SDS011;69749;42.684;23.360;2023-07-09T06:17:54;8.52;;;4.93;;
80411;SDS011;69749;42.684;23.360;2023-07-09T06:20:19;8.20;;;4.50;;
80411;SDS011;69749;42.684;23.360;2023-07-09T06:22:45;9.25;;;4.38;;
80411;SDS011;69749;42.684;23.360;2023-07-09T06:25:10;7.47;;;4.07;;
80411;SDS011;69749;42.684;23.360;2023-07-09T06:27:36;7.05;;;3.78;;
80411;SDS011;69749;42.684;23.360;2023-07-09T06:30:01;6.30;;;3.92;;
80411;SDS011;69749;42.684;23.360;2023-07-09T06:32:27;6.38;;;3.47;;
80411;SDS011;69749;42.684;23.360;2023-07-09T06:34:52;5.93;;;3.60;;
80411;SDS011;69749;42.684;23.360;2023-07-09T06:37:18;7.22;;;3.50;;
80411;SDS011;69749;42.684;23.360;2023-07-09T06:39:43;5.03;;;3.65;;
80411;SDS011;69749;42.684;23.360;2023-07-09T06:42:14;7.95;;;4.03;;
80411;SDS011;69749;42.684;23.360;2023-07-09T06:44:45;9.50;;;3.72;;
80411;SDS011;69749;42.684;23.360;2023-07-09T06:47:11;5.00;;;3.22;;
80411;SDS011;69749;42.684;23.360;2023-07-09T06:49:36;5.70;;;3.40;;
80411;SDS011;69749;42.684;23.360;2023-07-09T06:52:01;6.00;;;3.65;;
80411;SDS011;69749;42.684;23.360;2023-07-09T06:54:27;5.70;;;3.67;;
80411;SDS011;69749;42.684;23.360;2023-07-09T06:56:52;6.95;;;4.07;;
80411;SDS011;69749;42.684;23.360;2023-07-09T06:59:18;5.55;;;3.92;;
80411;SDS011;69749;42.684;23.360;2023-07-09T07:01:43;6.13;;;3.92;;
80411;SDS011;69749;42.684;23.360;2023-07-09T07:04:09;6.35;;;3.35;;
80411;SDS011;69749;42.684;23.360;2023-07-09T07:06:34;4.85;;;3.63;;
80411;SDS011;69749;42.684;23.360;2023-07-09T07:09:00;9.43;;;3.72;;
80411;SDS011;69749;42.684;23.360;2023-07-09T07:11:25;10.32;;;4.38;;
80411;SDS011;69749;42.684;23.360;2023-07-09T07:13:55;8.00;;;4.50;;
80411;SDS011;69749;42.684;23.360;2023-07-09T07:16:20;4.38;;;3.40;;
80411;SDS011;69749;42.684;23.360;2023-07-09T07:18:46;6.90;;;4.20;;
80411;SDS011;69749;42.684;23.360;2023-07-09T07:21:11;8.88;;;3.95;;
80411;SDS011;69749;42.684;23.360;2023-07-09T07:23:36;4.90;;;3.22;;
80411;SDS011;69749;42.684;23.360;2023-07-09T07:26:02;7.18;;;3.50;;
80411;SDS011;69749;42.684;23.360;2023-07-09T07:28:28;5.22;;;3.40;;
80411;SDS011;69749;42.684;23.360;2023-07-09T07:31:05;5.68;;;3.45;;
80411;SDS011;69749;42.684;23.360;2023-07-09T07:33:32;9.05;;;3.60;;
80411;SDS011;69749;42.684;23.360;2023-07-09T07:35:58;6.72;;;3.58;;
80411;SDS011;69749;42.684;23.360;2023-07-09T07:38:24;6.03;;;3.65;;
80411;SDS011;69749;42.684;23.360;2023-07-09T07:40:49;5.20;;;3.10;;
80411;SDS011;69749;42.684;23.360;2023-07-09T07:43:15;6.30;;;3.42;;
80411;SDS011;69749;42.684;23.360;2023-07-09T07:45:41;6.60;;;3.00;;
80411;SDS011;69749;42.684;23.360;2023-07-09T07:48:07;6.25;;;3.67;;
80411;SDS011;69749;42.684;23.360;2023-07-09T07:50:33;7.88;;;3.85;;
80411;SDS011;69749;42.684;23.360;2023-07-09T07:52:58;5.18;;;3.40;;
80411;SDS011;69749;42.684;23.360;2023-07-09T07:55:23;5.82;;;3.25;;
80411;SDS011;69749;42.684;23.360;2023-07-09T07:57:49;8.27;;;4.20;;
80411;SDS011;69749;42.684;23.360;2023-07-09T08:00:15;4.82;;;3.50;;
80411;SDS011;69749;42.684;23.360;2023-07-09T08:02:41;3.75;;;3.20;;
80411;SDS011;69749;42.684;23.360;2023-07-09T08:05:06;8.90;;;3.58;;
80411;SDS011;69749;42.684;23.360;2023-07-09T08:07:32;5.72;;;3.65;;
80411;SDS011;69749;42.684;23.360;2023-07-09T08:09:57;5.03;;;3.50;;
80411;SDS011;69749;42.684;23.360;2023-07-09T08:12:23;5.40;;;3.35;;
80411;SDS011;69749;42.684;23.360;2023-07-09T08:14:48;6.30;;;3.38;;
80411;SDS011;69749;42.684;23.360;2023-07-09T08:17:13;3.35;;;3.05;;
80411;SDS011;69749;42.684;23.360;2023-07-09T08:19:46;5.50;;;3.45;;
80411;SDS011;69749;42.684;23.360;2023-07-09T08:22:14;6.65;;;3.28;;
80411;SDS011;69749;42.684;23.360;2023-07-09T08:27:06;5.20;;;3.08;;
80411;SDS011;69749;42.684;23.360;2023-07-09T08:29:32;4.68;;;3.70;;
80411;SDS011;69749;42.684;23.360;2023-07-09T08:31:57;4.60;;;3.80;;
80411;SDS011;69749;42.684;23.360;2023-07-09T08:34:23;3.92;;;3.50;;
80411;SDS011;69749;42.684;23.360;2023-07-09T08:36:48;8.73;;;4.32;;
80411;SDS011;69749;42.684;23.360;2023-07-09T08:39:13;6.95;;;3.67;;
80411;SDS011;69749;42.684;23.360;2023-07-09T08:41:45;6.18;;;4.00;;
80411;SDS011;69749;42.684;23.360;2023-07-09T08:47:06;5.55;;;3.67;;
80411;SDS011;69749;42.684;23.360;2023-07-09T08:49:46;7.90;;;3.90;;
80411;SDS011;69749;42.684;23.360;2023-07-09T08:54:55;4.28;;;3.63;;
80411;SDS011;69749;42.684;23.360;2023-07-09T08:57:25;5.65;;;3.65;;
80411;SDS011;69749;42.684;23.360;2023-07-09T08:59:56;8.10;;;4.30;;
80411;SDS011;69749;42.684;23.360;2023-07-09T09:02:29;4.45;;;3.65;;
80411;SDS011;69749;42.684;23.360;2023-07-09T09:05:12;4.40;;;3.60;;
80411;SDS011;69749;42.684;23.360;2023-07-09T09:07:43;6.75;;;4.70;;
80411;SDS011;69749;42.684;23.360;2023-07-09T09:10:53;7.25;;;4.40;;
80411;SDS011;69749;42.684;23.360;2023-07-09T09:13:11;6.07;;;3.50;;
80411;SDS011;69749;42.684;23.360;2023-07-09T09:15:39;5.65;;;3.47;;
80411;SDS011;69749;42.684;23.360;2023-07-09T09:18:14;7.28;;;3.95;;
80411;SDS011;69749;42.684;23.360;2023-07-09T09:21:12;3.92;;;3.25;;
80411;SDS011;69749;42.684;23.360;2023-07-09T09:23:46;5.35;;;3.28;;
80411;SDS011;69749;42.684;23.360;2023-07-09T09:26:20;8.38;;;3.58;;
80411;SDS011;69749;42.684;23.360;2023-07-09T09:28:49;4.78;;;3.58;;
80411;SDS011;69749;42.684;23.360;2023-07-09T09:31:14;4.88;;;3.70;;
80411;SDS011;69749;42.684;23.360;2023-07-09T09:36:11;7.07;;;4.15;;
80411;SDS011;69749;42.684;23.360;2023-07-09T09:38:44;5.40;;;3.70;;
80411;SDS011;69749;42.684;23.360;2023-07-09T09:41:14;8.10;;;4.38;;
80411;SDS011;69749;42.684;23.360;2023-07-09T09:43:45;4.53;;;3.83;;
80411;SDS011;69749;42.684;23.360;2023-07-09T09:51:22;6.43;;;4.18;;
80411;SDS011;69749;42.684;23.360;2023-07-09T09:53:49;5.78;;;3.88;;
80411;SDS011;69749;42.684;23.360;2023-07-09T09:58:53;4.90;;;3.90;;
80411;SDS011;69749;42.684;23.360;2023-07-09T10:01:24;7.72;;;4.45;;
80411;SDS011;69749;42.684;23.360;2023-07-09T10:03:54;5.28;;;4.10;;
80411;SDS011;69749;42.684;23.360;2023-07-09T10:06:25;7.28;;;4.05;;
80411;SDS011;69749;42.684;23.360;2023-07-09T10:11:46;5.63;;;3.70;;
80411;SDS011;69749;42.684;23.360;2023-07-09T10:14:34;9.60;;;4.32;;
80411;SDS011;69749;42.684;23.360;2023-07-09T10:17:14;8.10;;;4.38;;
80411;SDS011;69749;42.684;23.360;2023-07-09T10:25:35;6.30;;;4.07;;
80411;SDS011;69749;42.684;23.360;2023-07-09T10:28:29;4.00;;;3.40;;
80411;SDS011;69749;42.684;23.360;2023-07-09T10:34:02;3.95;;;3.05;;
80411;SDS011;69749;42.684;23.360;2023-07-09T10:39:24;4.30;;;3.28;;
80411;SDS011;69749;42.684;23.360;2023-07-09T10:41:56;5.85;;;3.50;;
80411;SDS011;69749;42.684;23.360;2023-07-09T10:44:32;4.72;;;3.10;;
80411;SDS011;69749;42.684;23.360;2023-07-09T10:47:02;5.03;;;3.33;;
80411;SDS011;69749;42.684;23.360;2023-07-09T10:49:32;7.68;;;3.78;;
80411;SDS011;69749;42.684;23.360;2023-07-09T10:52:23;4.82;;;3.60;;
80411;SDS011;69749;42.684;23.360;2023-07-09T10:55:02;5.22;;;3.47;;
80411;SDS011;69749;42.684;23.360;2023-07-09T10:57:32;5.47;;;3.88;;
80411;SDS011;69749;42.684;23.360;2023-07-09T11:00:15;3.92;;;3.20;;
80411;SDS011;69749;42.684;23.360;2023-07-09T11:02:43;3.70;;;3.20;;
80411;SDS011;69749;42.684;23.360;2023-07-09T11:05:10;6.63;;;3.60;;
80411;SDS011;69749;42.684;23.360;2023-07-09T11:12:59;6.25;;;3.55;;
80411;SDS011;69749;42.684;23.360;2023-07-09T11:15:31;4.93;;;3.30;;
80411;SDS011;69749;42.684;23.360;2023-07-09T11:18:01;7.60;;;3.45;;
80411;SDS011;69749;42.684;23.360;2023-07-09T11:20:34;5.40;;;3.42;;
80411;SDS011;69749;42.684;23.360;2023-07-09T11:23:03;5.80;;;2.90;;
80411;SDS011;69749;42.684;23.360;2023-07-09T11:25:41;6.78;;;3.55;;
80411;SDS011;69749;42.684;23.360;2023-07-09T11:28:12;4.47;;;3.00;;
80411;SDS011;69749;42.684;23.360;2023-07-09T11:30:48;3.95;;;3.00;;
80411;SDS011;69749;42.684;23.360;2023-07-09T11:33:19;4.90;;;3.42;;
80411;SDS011;69749;42.684;23.360;2023-07-09T11:36:06;5.85;;;3.03;;
80411;SDS011;69749;42.684;23.360;2023-07-09T11:38:41;4.78;;;3.13;;
80411;SDS011;69749;42.684;23.360;2023-07-09T11:41:29;5.63;;;3.47;;
80411;SDS011;69749;42.684;23.360;2023-07-09T11:57:59;6.05;;;2.97;;
80411;SDS011;69749;42.684;23.360;2023-07-09T12:00:26;4.40;;;2.88;;
80411;SDS011;69749;42.684;23.360;2023-07-09T12:02:55;4.90;;;3.20;;
80411;SDS011;69749;42.684;23.360;2023-07-09T12:05:25;4.90;;;2.83;;
80411;SDS011;69749;42.684;23.360;2023-07-09T12:07:52;5.05;;;3.13;;
80411;SDS011;69749;42.684;23.360;2023-07-09T12:12:46;4.90;;;3.30;;
80411;SDS011;69749;42.684;23.360;2023-07-09T12:15:15;4.43;;;3.03;;
80411;SDS011;69749;42.684;23.360;2023-07-09T12:17:43;6.45;;;3.42;;
80411;SDS011;69749;42.684;23.360;2023-07-09T12:20:17;4.90;;;3.08;;
80411;SDS011;69749;42.684;23.360;2023-07-09T12:22:43;3.53;;;3.10;;
80411;SDS011;69749;42.684;23.360;2023-07-09T12:25:17;5.43;;;3.40;;
80411;SDS011;69749;42.684;23.360;2023-07-09T12:27:46;4.10;;;3.40;;
80411;SDS011;69749;42.684;23.360;2023-07-09T12:30:11;3.08;;;2.78;;
80411;SDS011;69749;42.684;23.360;2023-07-09T12:32:47;3.10;;;2.80;;
80411;SDS011;69749;42.684;23.360;2023-07-09T12:35:17;4.07;;;2.78;;
80411;SDS011;69749;42.684;23.360;2023-07-09T12:40:17;4.90;;;2.60;;
80411;SDS011;69749;42.684;23.360;2023-07-09T12:42:46;3.45;;;3.10;;
80411;SDS011;69749;42.684;23.360;2023-07-09T12:45:19;5.55;;;3.00;;
80411;SDS011;69749;42.684;23.360;2023-07-09T12:47:46;4.95;;;2.80;;
80411;SDS011;69749;42.684;23.360;2023-07-09T12:50:29;6.80;;;3.30;;
80411;SDS011;69749;42.684;23.360;2023-07-09T12:52:56;5.85;;;3.13;;
80411;SDS011;69749;42.684;23.360;2023-07-09T12:55:25;3.97;;;2.80;;
80411;SDS011;69749;42.684;23.360;2023-07-09T13:00:20;8.63;;;3.30;;
80411;SDS011;69749;42.684;23.360;2023-07-09T13:02:50;6.10;;;3.45;;
80411;SDS011;69749;42.684;23.360;2023-07-09T13:05:20;6.53;;;3.20;;
80411;SDS011;69749;42.684;23.360;2023-07-09T13:08:11;7.18;;;3.22;;
80411;SDS011;69749;42.684;23.360;2023-07-09T13:10:40;5.40;;;3.13;;
80411;SDS011;69749;42.684;23.360;2023-07-09T13:13:06;4.32;;;2.83;;
80411;SDS011;69749;42.684;23.360;2023-07-09T13:18:02;4.05;;;3.10;;
80411;SDS011;69749;42.684;23.360;2023-07-09T13:20:30;3.72;;;2.90;;
80411;SDS011;69749;42.684;23.360;2023-07-09T13:22:57;5.53;;;3.15;;
80411;SDS011;69749;42.684;23.360;2023-07-09T13:25:23;3.55;;;2.60;;
80411;SDS011;69749;42.684;23.360;2023-07-09T13:27:49;5.53;;;3.22;;
80411;SDS011;69749;42.684;23.360;2023-07-09T13:30:14;7.05;;;2.92;;
80411;SDS011;69749;42.684;23.360;2023-07-09T13:32:40;3.20;;;2.83;;
80411;SDS011;69749;42.684;23.360;2023-07-09T13:35:16;5.25;;;2.65;;
80411;SDS011;69749;42.684;23.360;2023-07-09T13:37:44;3.90;;;3.15;;
80411;SDS011;69749;42.684;23.360;2023-07-09T13:40:11;3.85;;;3.13;;
80411;SDS011;69749;42.684;23.360;2023-07-09T13:42:38;7.25;;;2.58;;
80411;SDS011;69749;42.684;23.360;2023-07-09T13:45:08;5.63;;;3.22;;
80411;SDS011;69749;42.684;23.360;2023-07-09T13:47:54;4.28;;;2.92;;
80411;SDS011;69749;42.684;23.360;2023-07-09T13:50:22;5.07;;;2.90;;
80411;SDS011;69749;42.684;23.360;2023-07-09T13:52:48;5.18;;;3.22;;
80411;SDS011;69749;42.684;23.360;2023-07-09T13:55:18;5.13;;;3.45;;
80411;SDS011;69749;42.684;23.360;2023-07-09T13:58:04;5.03;;;2.85;;
80411;SDS011;69749;42.684;23.360;2023-07-09T14:00:30;4.03;;;3.47;;
80411;SDS011;69749;42.684;23.360;2023-07-09T14:02:55;3.88;;;3.13;;
80411;SDS011;69749;42.684;23.360;2023-07-09T14:05:20;6.07;;;3.25;;
80411;SDS011;69749;42.684;23.360;2023-07-09T14:07:46;4.45;;;3.28;;
80411;SDS011;69749;42.684;23.360;2023-07-09T14:10:13;7.82;;;3.45;;
80411;SDS011;69749;42.684;23.360;2023-07-09T14:12:43;6.20;;;3.30;;
80411;SDS011;69749;42.684;23.360;2023-07-09T14:15:20;4.85;;;3.75;;
80411;SDS011;69749;42.684;23.360;2023-07-09T14:17:46;3.95;;;3.38;;
80411;SDS011;69749;42.684;23.360;2023-07-09T14:20:15;3.78;;;3.38;;
80411;SDS011;69749;42.684;23.360;2023-07-09T14:22:42;5.65;;;3.25;;
80411;SDS011;69749;42.684;23.360;2023-07-09T14:25:10;8.18;;;4.07;;
80411;SDS011;69749;42.684;23.360;2023-07-09T14:27:44;4.03;;;3.03;;
80411;SDS011;69749;42.684;23.360;2023-07-09T14:30:13;5.05;;;3.50;;
80411;SDS011;69749;42.684;23.360;2023-07-09T14:32:40;4.13;;;3.53;;
80411;SDS011;69749;42.684;23.360;2023-07-09T14:35:16;5.47;;;3.53;;
80411;SDS011;69749;42.684;23.360;2023-07-09T14:37:44;4.47;;;3.95;;
80411;SDS011;69749;42.684;23.360;2023-07-09T14:40:11;6.35;;;4.15;;
80411;SDS011;69749;42.684;23.360;2023-07-09T14:42:39;5.20;;;3.80;;
80411;SDS011;69749;42.684;23.360;2023-07-09T14:45:05;5.80;;;3.80;;
80411;SDS011;69749;42.684;23.360;2023-07-09T14:47:42;5.18;;;4.00;;
80411;SDS011;69749;42.684;23.360;2023-07-09T14:50:08;9.43;;;3.40;;
80411;SDS011;69749;42.684;23.360;2023-07-09T14:52:36;8.65;;;3.88;;
80411;SDS011;69749;42.684;23.360;2023-07-09T14:55:03;4.55;;;3.47;;
80411;SDS011;69749;42.684;23.360;2023-07-09T14:57:28;6.13;;;3.63;;
80411;SDS011;69749;42.684;23.360;2023-07-09T14:59:55;5.93;;;4.28;;
80411;SDS011;69749;42.684;23.360;2023-07-09T15:04:56;7.28;;;4.30;;
80411;SDS011;69749;42.684;23.360;2023-07-09T15:07:22;5.88;;;4.00;;
80411;SDS011;69749;42.684;23.360;2023-07-09T15:09:47;4.78;;;3.50;;
80411;SDS011;69749;42.684;23.360;2023-07-09T15:12:19;4.47;;;3.55;;
80411;SDS011;69749;42.684;23.360;2023-07-09T15:14:47;5.43;;;3.75;;
80411;SDS011;69749;42.684;23.360;2023-07-09T15:17:13;8.13;;;3.85;;
80411;SDS011;69749;42.684;23.360;2023-07-09T15:19:38;7.45;;;4.05;;
80411;SDS011;69749;42.684;23.360;2023-07-09T15:22:04;6.22;;;4.20;;
80411;SDS011;69749;42.684;23.360;2023-07-09T15:24:34;8.00;;;4.82;;
80411;SDS011;69749;42.684;23.360;2023-07-09T15:27:05;8.68;;;5.90;;
80411;SDS011;69749;42.684;23.360;2023-07-09T15:29:30;7.10;;;4.57;;
80411;SDS011;69749;42.684;23.360;2023-07-09T15:31:56;7.70;;;4.53;;
80411;SDS011;69749;42.684;23.360;2023-07-09T15:34:23;10.05;;;6.28;;
80411;SDS011;69749;42.684;23.360;2023-07-09T15:36:49;22.48;;;14.23;;
80411;SDS011;69749;42.684;23.360;2023-07-09T15:39:28;9.93;;;6.47;;
80411;SDS011;69749;42.684;23.360;2023-07-09T15:41:56;11.70;;;6.38;;
80411;SDS011;69749;42.684;23.360;2023-07-09T15:44:22;7.53;;;4.93;;
80411;SDS011;69749;42.684;23.360;2023-07-09T15:46:55;7.55;;;4.97;;
80411;SDS011;69749;42.684;23.360;2023-07-09T15:49:24;12.50;;;8.55;;